Etusivu
METAR-TAF:

METAR-TAF

Lentoasemat :

Tokio Heliport, Japani

Leveyspiiri: 35-38N, Pituuspiiri: 139-51E, korkeus merenpinnasta: 5 m

Tämänhetkinen sää

Tämä raportti tehtiin 6 tuntia ja 36 minuuttia sitten, kello 07.00 UTC
Tuuli 3 kn pohjoisesta, vaihdellen luoteen ja pohjoisen välillä
Lämpötila 16°C
Kosteus 51%
Ilmanpaine 1017 hPa
Näkyvyys 10 km tai enemmän
Muutamia pilviä 1500 ft:n korkeudessa
Hajanaisia pilviä 4000 ft:n korkeudessa
Hajonneita pilviä 6000 ft:n korkeudessa
heikkoa sadetta

METAR: RJTI 130700Z 35003KT 310V010 9999 -RA FEW015 SCT040 BKN060 16/06 Q1017

Aika: 22:36 (13:36 UTC)


TAF: puuttuu

Säähavainnot ja -ennusteet yli 4000 lentoasemalta (METAR- ja TAF-raportit).

Käytössä olevat sääasemat on merkitty karttaan keltaisilla ja punaisilla pisteillä.

Aseta hiiri pisteen päälle nähdäksesi sääaseman nimen.

Klikkaa sitten nähdäksesi säähavainnot ja -ennusteet.

Kartan vaihtaminen: klikkaa mustalla rastilla varustettuja vihreitä pisteitä, niin voit zoomata sisään; viivalla varustettua vihreää pistettä, niin voit zoomata ulos tai vihreitä nuolia, niin pääset viereisille kartoille.


METAR-TAF: